This is the latest recevied weather packets stored in our database for station/object KC5TIL-3. If no packets are shown the sender has not sent any weather packets the latest 10 day(s).
| Time | Temp. | Humidity | Pressure | Rain* | Wind** | Luminosity | Snow |
|---|---|---|---|---|---|---|---|
| 1777923551 | 26.67° C | 23% | 1006.8 hPa | 0 mm | 4.92 m/s, 191° | - | - |
| 1777923252 | 26.11° C | 23% | 1006.8 hPa | 0 mm | 4.02 m/s, 208° | - | - |
| 1777922954 | 26.11° C | 23% | 1006.8 hPa | 0 mm | 3.13 m/s, 147° | - | - |
| 1777922354 | 26.11° C | 24% | 1007.8 hPa | 0 mm | 4.02 m/s, 199° | - | - |
| 1777922056 | 25.56° C | 24% | 1007.8 hPa | 0 mm | 5.81 m/s, 210° | - | - |
| 1777921754 | 26.11° C | 23% | 1007.8 hPa | 0 mm | 4.47 m/s, 195° | - | - |
| 1777921455 | 25.56° C | 23% | 1007.8 hPa | 0 mm | 4.47 m/s, 247° | - | - |
| 1777921158 | 25.56° C | 24% | 1007.8 hPa | 0 mm | 4.47 m/s, 195° | - | - |
| 1777920855 | 26.11° C | 23% | 1007.8 hPa | 0 mm | 3.13 m/s, 185° | - | - |
| 1777920259 | 25° C | 25% | 1007.8 hPa | 0 mm | 5.36 m/s, 210° | - | - |
| 1777919957 | 25° C | 25% | 1007.8 hPa | 0 mm | 5.36 m/s, 202° | - | - |
| 1777919050 | 25° C | 25% | 1007.8 hPa | 0 mm | 5.36 m/s, 189° | - | - |
| 1777918743 | 25° C | 24% | 1008.8 hPa | 0 mm | 4.92 m/s, 210° | - | - |
| 1777918138 | 25° C | 25% | 1008.8 hPa | 0 mm | 4.47 m/s, 188° | - | - |
| 1777917542 | 25° C | 25% | 1008.8 hPa | 0 mm | 4.02 m/s, 132° | - | - |
| 1777916040 | 23.89° C | 27% | 1008.8 hPa | 0 mm | 3.13 m/s, 139° | - | - |
| 1777915742 | 23.89° C | 27% | 1008.8 hPa | 0 mm | 4.92 m/s, 207° | - | - |
| 1777915435 | 23.89° C | 26% | 1008.8 hPa | 0 mm | 3.13 m/s, 179° | - | - |
| 1777915138 | 23.89° C | 26% | 1008.8 hPa | 0 mm | 4.02 m/s, 199° | - | - |
| 1777914839 | 23.89° C | 27% | 1008.8 hPa | 0 mm | 4.02 m/s, 224° | - | - |
| 1777913635 | 23.33° C | 28% | 1009.8 hPa | 0 mm | 4.47 m/s, 171° | - | - |
| 1777913338 | 23.33° C | 29% | 1009.8 hPa | 0 mm | 2.24 m/s, 146° | - | - |
| 1777913039 | 22.78° C | 30% | 1009.8 hPa | 0 mm | 5.36 m/s, 216° | - | - |
| 1777912738 | 22.78° C | 30% | 1009.8 hPa | 0 mm | 5.36 m/s, 224° | - | - |
| 1777912141 | 22.22° C | 31% | 1009.8 hPa | 0 mm | 5.81 m/s, 211° | - | - |
* Rain latest hour (hover to see other rain measurements)
** Current wind speed in m/s (hover to see current wind gust speed)